Search for airport 
image banner adimage banner adimage banner ad
image banner ad

4PA8 - Russo Airstrip

Located in Pipersville, United States

ICAO - 4PA8, IATA -

Data provided by Airmate  

General information

Coordinates: N40°25'58" W75°8'59"
Elevation is 400 feet MSL.
Magnetic variation is -12° East
View others Airports in Pennsylvania

Operational data

Special qualification required
Current time UTC:
Current local time:
Weather at : KDYL - Doylestown ( 11 km )
METAR: KDYL 091654Z AUTO VRB06KT 10SM FEW085 14/03 A3004 RMK AO2 SLP173 T01390033
View NOTAMs / SUP AIP / TFR affecting this airport [VIEW]
Communications frequencies: [VIEW]

Runways:

RWY identifierQFULength (ft)Width (ft)SurfaceLDA (ft)
101500100GRASS
281500100GRASS

Airport contact information

Address: Pipersville United States

Satellite view of 4PA8